createdAt,value
2018-07-23T00:00:48.316Z,0
2018-07-23T00:01:49.235Z,0
2018-07-23T00:02:53.236Z,0
2018-07-23T00:03:48.853Z,0
2018-07-23T00:04:48.204Z,0
2018-07-23T00:05:49.161Z,0
2018-07-23T00:06:48.807Z,0
2018-07-23T00:07:48.228Z,0
2018-07-23T00:08:48.444Z,0
2018-07-23T00:09:49.294Z,0
2018-07-23T00:10:48.980Z,0
2018-07-23T00:11:48.538Z,0
2018-07-23T00:12:48.940Z,0
2018-07-23T00:13:48.339Z,0
2018-07-23T00:15:31.464Z,0
2018-07-23T00:16:31.912Z,0
2018-07-23T00:17:31.834Z,0
2018-07-23T00:18:32.247Z,0
2018-07-23T00:19:31.780Z,0
2018-07-23T00:20:32.111Z,0
2018-07-23T00:21:31.899Z,0
2018-07-23T00:22:31.622Z,0
2018-07-23T00:23:32.141Z,0
2018-07-23T00:24:52.900Z,0
2018-07-23T00:25:53.349Z,0
2018-07-23T00:27:13.846Z,0
2018-07-23T00:28:14.295Z,0
2018-07-23T00:29:14.865Z,0
2018-07-23T00:30:14.424Z,0
2018-07-23T00:31:14.608Z,0
2018-07-23T00:32:35.463Z,0
2018-07-23T00:33:41.045Z,0
2018-07-23T00:34:35.846Z,0
2018-07-23T00:35:35.151Z,0
2018-07-23T00:36:35.971Z,0
2018-07-23T00:37:35.447Z,0
2018-07-23T00:38:36.072Z,0
2018-07-23T00:39:56.800Z,0
2018-07-23T00:40:59.559Z,0
2018-07-23T00:41:57.047Z,0
2018-07-23T00:42:57.579Z,0
2018-07-23T00:44:17.855Z,0
2018-07-23T00:45:18.420Z,0
2018-07-23T00:46:19.169Z,0
2018-07-23T00:47:18.995Z,0
2018-07-23T00:48:18.378Z,0
2018-07-23T00:49:19.072Z,0
2018-07-23T00:50:41.668Z,0
2018-07-23T00:51:42.165Z,0
2018-07-23T00:53:03.254Z,0
2018-07-23T00:54:04.155Z,0
2018-07-23T00:55:03.589Z,0
2018-07-23T00:56:03.788Z,0
2018-07-23T00:57:04.457Z,0
2018-07-23T00:58:04.064Z,0
2018-07-23T00:59:03.495Z,0
2018-07-23T01:00:04.230Z,0
2018-07-23T01:01:03.568Z,0
2018-07-23T01:02:04.192Z,0
2018-07-23T01:03:03.696Z,0
2018-07-23T01:04:04.277Z,0
2018-07-23T01:05:03.875Z,0
2018-07-23T01:06:04.250Z,0
2018-07-23T01:07:04.814Z,0
2018-07-23T01:08:03.960Z,0
2018-07-23T01:09:03.314Z,0
2018-07-23T01:10:03.946Z,0
2018-07-23T01:11:03.473Z,0
2018-07-23T01:12:04.127Z,0
2018-07-23T01:13:03.426Z,0
2018-07-23T01:14:04.624Z,0
2018-07-23T01:15:04.119Z,0
2018-07-23T01:16:03.691Z,0
2018-07-23T01:17:05.574Z,0
2018-07-23T01:18:04.569Z,0
2018-07-23T01:19:04.349Z,0
2018-07-23T01:20:03.809Z,0
2018-07-23T01:21:04.454Z,0
2018-07-23T01:22:04.428Z,0
2018-07-23T01:23:04.176Z,0
2018-07-23T01:24:04.091Z,0
2018-07-23T01:25:46.365Z,0
2018-07-23T01:26:46.659Z,0
2018-07-23T01:27:47.658Z,0
2018-07-23T01:28:46.894Z,0
2018-07-23T01:29:48.814Z,0
2018-07-23T01:30:48.322Z,0
2018-07-23T01:31:46.682Z,0
2018-07-23T01:32:47.396Z,0
2018-07-23T01:33:47.176Z,0
2018-07-23T01:35:07.814Z,0
2018-07-23T01:36:30.186Z,0
2018-07-23T01:37:31.210Z,0
2018-07-23T01:38:30.908Z,0
2018-07-23T01:39:53.952Z,0
2018-07-23T01:40:54.599Z,0
2018-07-23T01:41:54.184Z,0
2018-07-23T01:42:53.660Z,0
2018-07-23T01:43:55.696Z,0
2018-07-23T01:45:15.540Z,0
2018-07-23T01:46:15.980Z,0
2018-07-23T01:47:16.412Z,0
2018-07-23T01:48:15.827Z,0
2018-07-23T01:49:16.433Z,0
2018-07-23T01:50:15.950Z,0
2018-07-23T01:51:39.856Z,0
2018-07-23T01:52:40.515Z,0
2018-07-23T01:53:39.998Z,0
2018-07-23T01:54:40.380Z,0
2018-07-23T01:55:39.990Z,0
2018-07-23T01:56:40.634Z,0
2018-07-23T01:57:40.970Z,0
2018-07-23T01:58:40.511Z,0
2018-07-23T01:59:40.189Z,0
2018-07-23T02:00:39.837Z,0
2018-07-23T02:01:40.489Z,0
2018-07-23T02:03:01.470Z,0
2018-07-23T02:04:23.129Z,0
2018-07-23T02:05:24.030Z,0
2018-07-23T02:06:23.683Z,0
2018-07-23T02:07:23.483Z,0
2018-07-23T02:08:23.814Z,0
2018-07-23T02:09:23.776Z,0
2018-07-23T02:10:23.589Z,0
2018-07-23T02:11:24.626Z,0
2018-07-23T02:12:23.084Z,0
2018-07-23T02:13:23.670Z,0
2018-07-23T02:14:44.295Z,0
2018-07-23T02:15:45.192Z,0
2018-07-23T02:16:44.803Z,0
2018-07-23T02:17:44.755Z,0
2018-07-23T02:18:44.481Z,0
2018-07-23T02:19:44.805Z,0
2018-07-23T02:20:45.244Z,0
2018-07-23T02:21:44.995Z,0
2018-07-23T02:22:44.494Z,0
2018-07-23T02:23:45.129Z,0
2018-07-23T02:24:44.620Z,0
2018-07-23T02:25:45.149Z,0
2018-07-23T02:27:05.892Z,0
2018-07-23T02:28:06.284Z,0
2018-07-23T02:29:26.822Z,0
2018-07-23T02:30:27.457Z,0
2018-07-23T02:31:27.931Z,0
2018-07-23T02:32:27.474Z,0
2018-07-23T02:33:27.340Z,0
2018-07-23T02:34:27.954Z,0
2018-07-23T02:35:27.611Z,0
2018-07-23T02:36:27.022Z,0
2018-07-23T02:37:28.863Z,0
2018-07-23T02:38:27.174Z,0
2018-07-23T02:39:27.534Z,0
2018-07-23T02:40:27.715Z,0
2018-07-23T02:41:27.417Z,0
2018-07-23T02:42:26.812Z,0
2018-07-23T02:43:27.227Z,0
2018-07-23T02:44:27.724Z,0
2018-07-23T02:45:27.353Z,0
2018-07-23T02:46:27.927Z,0
2018-07-23T02:47:27.178Z,0
2018-07-23T02:48:27.611Z,0
2018-07-23T02:49:27.526Z,0
2018-07-23T02:50:27.129Z,0
2018-07-23T02:51:27.553Z,0
2018-07-23T02:52:27.201Z,0
2018-07-23T02:53:27.631Z,0
2018-07-23T02:54:27.270Z,0
2018-07-23T02:55:27.632Z,0
2018-07-23T02:56:27.025Z,0
2018-07-23T02:57:27.557Z,0
2018-07-23T02:58:26.979Z,0
2018-07-23T02:59:27.393Z,0
2018-07-23T03:00:27.931Z,0
2018-07-23T03:01:27.183Z,0
2018-07-23T03:02:48.902Z,0
2018-07-23T03:03:49.489Z,0
2018-07-23T03:05:32.596Z,0
2018-07-23T03:06:33.144Z,0
2018-07-23T03:07:32.493Z,0
2018-07-23T03:08:33.127Z,0
2018-07-23T03:09:32.453Z,0
2018-07-23T03:10:32.862Z,0
2018-07-23T03:11:32.564Z,0
2018-07-23T03:12:54.621Z,0
2018-07-23T03:13:54.946Z,0
2018-07-23T03:14:55.497Z,0
2018-07-23T03:15:54.819Z,0
2018-07-23T03:16:55.262Z,0
2018-07-23T03:17:54.735Z,0
2018-07-23T03:18:55.254Z,0
2018-07-23T03:19:54.457Z,0
2018-07-23T03:21:16.129Z,0
2018-07-23T03:22:37.733Z,0
2018-07-23T03:23:38.361Z,0
2018-07-23T03:24:38.061Z,1
2018-07-23T03:25:37.526Z,1
2018-07-23T03:26:37.791Z,1
2018-07-23T03:27:38.499Z,1
2018-07-23T03:29:01.733Z,1
2018-07-23T03:30:02.080Z,1
2018-07-23T03:31:02.770Z,2
2018-07-23T03:32:02.320Z,2
2018-07-23T03:33:01.895Z,2
2018-07-23T03:34:02.680Z,2
2018-07-23T03:35:02.066Z,2
2018-07-23T03:36:01.523Z,3
2018-07-23T03:37:02.013Z,3
2018-07-23T03:38:01.793Z,3
2018-07-23T03:39:23.803Z,3
2018-07-23T03:40:24.668Z,4
2018-07-23T03:41:24.455Z,4
2018-07-23T03:42:24.135Z,4
2018-07-23T03:43:25.004Z,4
2018-07-23T03:44:24.681Z,5
2018-07-23T03:45:24.154Z,5
2018-07-23T03:46:25.009Z,5
2018-07-23T03:47:24.476Z,6
2018-07-23T03:48:24.035Z,6
2018-07-23T03:49:24.446Z,6
2018-07-23T03:50:25.046Z,7
2018-07-23T03:51:24.347Z,7
2018-07-23T03:53:06.404Z,8
2018-07-23T03:54:06.947Z,8
2018-07-23T03:55:07.409Z,9
2018-07-23T03:56:06.811Z,9
2018-07-23T03:57:29.126Z,10
2018-07-23T03:58:29.668Z,10
2018-07-23T03:59:29.273Z,10
2018-07-23T04:00:28.916Z,11
2018-07-23T04:01:29.766Z,11
2018-07-23T04:02:29.562Z,12
2018-07-23T04:03:29.113Z,12
2018-07-23T04:04:29.769Z,13
2018-07-23T04:05:29.309Z,13
2018-07-23T04:06:29.854Z,14
2018-07-23T04:07:50.558Z,14
2018-07-23T04:08:51.128Z,15
2018-07-23T04:09:50.586Z,15
2018-07-23T04:10:51.290Z,16
2018-07-23T04:11:50.948Z,16
2018-07-23T04:12:53.046Z,17
2018-07-23T04:14:13.373Z,17
2018-07-23T04:15:14.091Z,18
2018-07-23T04:16:38.373Z,19
2018-07-23T04:17:39.386Z,19
2018-07-23T04:18:39.251Z,20
2018-07-23T04:19:38.701Z,21
2018-07-23T04:20:38.433Z,21
2018-07-23T04:21:38.901Z,22
2018-07-23T04:22:38.510Z,23
2018-07-23T04:23:40.237Z,23
2018-07-23T04:24:39.259Z,23
2018-07-23T04:25:39.023Z,24
2018-07-23T04:26:38.924Z,24
2018-07-23T04:27:38.893Z,25
2018-07-23T04:28:38.670Z,25
2018-07-23T04:29:38.479Z,26
2018-07-23T04:30:39.097Z,26
2018-07-23T04:31:38.621Z,27
2018-07-23T04:32:38.407Z,28
2018-07-23T04:33:39.170Z,29
2018-07-23T04:35:00.211Z,29
2018-07-23T04:36:00.798Z,30
2018-07-23T04:37:00.769Z,31
2018-07-23T04:38:00.406Z,31
2018-07-23T04:39:01.470Z,37
2018-07-23T04:40:01.127Z,38
2018-07-23T04:41:00.849Z,32
2018-07-23T04:42:22.347Z,33
2018-07-23T04:43:23.188Z,43
2018-07-23T04:45:05.814Z,44
2018-07-23T04:46:07.538Z,35
2018-07-23T04:47:27.449Z,35
2018-07-23T04:48:28.039Z,39
2018-07-23T04:49:27.708Z,35
2018-07-23T04:50:28.582Z,40
2018-07-23T04:51:28.273Z,37
2018-07-23T04:52:29.130Z,40
2018-07-23T04:53:49.368Z,38
2018-07-23T04:54:49.983Z,49
2018-07-23T04:55:49.578Z,52
2018-07-23T04:56:49.079Z,56
2018-07-23T04:57:49.935Z,56
2018-07-23T04:58:49.897Z,51
2018-07-23T04:59:49.670Z,49
2018-07-23T05:00:49.287Z,51
2018-07-23T05:02:10.984Z,41
2018-07-23T05:03:11.744Z,42
2018-07-23T05:04:11.180Z,42
2018-07-23T05:05:33.728Z,43
2018-07-23T05:06:34.440Z,43
2018-07-23T05:07:55.573Z,44
2018-07-23T05:08:56.260Z,44
2018-07-23T05:09:56.036Z,45
2018-07-23T05:11:17.362Z,45
2018-07-23T05:12:17.844Z,46
2018-07-23T05:13:17.408Z,46
2018-07-23T05:14:17.117Z,47
2018-07-23T05:15:18.082Z,47
2018-07-23T05:16:17.629Z,48
2018-07-23T05:17:17.267Z,48
2018-07-23T05:18:17.796Z,49
2018-07-23T05:19:17.775Z,48
2018-07-23T05:20:17.468Z,49
2018-07-23T05:21:18.642Z,49
2018-07-23T05:23:00.098Z,50
2018-07-23T05:24:03.099Z,51
2018-07-23T05:25:02.099Z,52
2018-07-23T05:26:00.848Z,52
2018-07-23T05:27:00.409Z,53
2018-07-23T05:28:01.279Z,54
2018-07-23T05:29:01.075Z,55
2018-07-23T05:30:00.986Z,57
2018-07-23T05:31:01.223Z,59
2018-07-23T05:32:22.510Z,82
2018-07-23T05:33:23.237Z,114
2018-07-23T05:34:22.934Z,121
2018-07-23T05:35:22.625Z,103
2018-07-23T05:36:23.278Z,79
2018-07-23T05:37:44.595Z,78
2018-07-23T05:38:45.206Z,86
2018-07-23T05:40:07.063Z,79
2018-07-23T05:41:28.105Z,75
2018-07-23T05:42:28.924Z,73
2018-07-23T05:43:28.826Z,74
2018-07-23T05:44:28.318Z,81
2018-07-23T05:45:28.238Z,83
2018-07-23T05:46:28.675Z,81
2018-07-23T05:47:28.591Z,107
2018-07-23T05:48:28.023Z,153
2018-07-23T05:49:50.127Z,169
2018-07-23T05:50:51.059Z,171
2018-07-23T05:52:12.064Z,175
2018-07-23T05:53:12.855Z,185
2018-07-23T05:54:12.443Z,184
2018-07-23T05:55:12.220Z,183
2018-07-23T05:56:27.281Z,188
2018-07-23T05:57:15.170Z,182
2018-07-23T05:58:12.098Z,182
2018-07-23T05:59:56.093Z,195
2018-07-23T06:00:57.007Z,205
2018-07-23T06:01:56.484Z,205
2018-07-23T06:02:56.518Z,203
2018-07-23T06:03:56.001Z,211
2018-07-23T06:04:57.018Z,219
2018-07-23T06:06:17.988Z,212
2018-07-23T06:07:19.474Z,207
2018-07-23T06:08:18.297Z,199
2018-07-23T06:09:18.113Z,202
2018-07-23T06:10:18.869Z,204
2018-07-23T06:11:18.821Z,213
2018-07-23T06:12:18.620Z,223
2018-07-23T06:13:39.959Z,233
2018-07-23T06:15:02.095Z,239
2018-07-23T06:16:02.848Z,243
2018-07-23T06:17:02.736Z,250
2018-07-23T06:18:02.427Z,251
2018-07-23T06:19:03.123Z,257
2018-07-23T06:20:30.836Z,246
2018-07-23T06:21:31.962Z,242
2018-07-23T06:22:31.812Z,242
2018-07-23T06:23:31.384Z,262
2018-07-23T06:25:15.562Z,274
2018-07-23T06:26:38.075Z,272
2018-07-23T06:27:39.077Z,280
2018-07-23T06:28:38.879Z,290
2018-07-23T06:29:38.797Z,292
2018-07-23T06:30:38.410Z,293
2018-07-23T06:31:38.027Z,290
2018-07-23T06:32:38.507Z,289
2018-07-23T06:33:38.144Z,290
2018-07-23T06:34:38.996Z,292
2018-07-23T06:35:38.581Z,302
2018-07-23T06:36:38.249Z,308
2018-07-23T06:37:39.690Z,307
2018-07-23T06:38:38.669Z,301
2018-07-23T06:39:38.609Z,296
2018-07-23T06:40:38.623Z,302
2018-07-23T06:41:59.798Z,310
2018-07-23T06:43:00.574Z,317
2018-07-23T06:44:00.344Z,324
2018-07-23T06:45:00.015Z,310
2018-07-23T06:46:00.732Z,303
2018-07-23T06:47:00.573Z,319
2018-07-23T06:48:00.177Z,332
2018-07-23T06:49:00.106Z,343
2018-07-23T06:50:00.982Z,343
2018-07-23T06:51:00.944Z,341
2018-07-23T06:52:00.690Z,342
2018-07-23T06:53:22.290Z,329
2018-07-23T06:54:23.028Z,326
2018-07-23T06:56:05.652Z,331
2018-07-23T06:57:06.671Z,326
2018-07-23T06:58:27.926Z,328
2018-07-23T06:59:28.624Z,339
2018-07-23T07:00:28.333Z,350
2018-07-23T07:01:27.930Z,364
2018-07-23T07:02:27.783Z,375
2018-07-23T07:03:28.835Z,369
2018-07-23T07:04:28.386Z,372
2018-07-23T07:05:28.450Z,374
2018-07-23T07:06:28.601Z,359
2018-07-23T07:07:28.489Z,352
2018-07-23T07:08:28.072Z,354
2018-07-23T07:09:27.887Z,351
2018-07-23T07:10:28.800Z,365
2018-07-23T07:11:28.390Z,380
2018-07-23T07:12:27.822Z,382
2018-07-23T07:13:29.275Z,371
2018-07-23T07:14:50.370Z,379
2018-07-23T07:15:50.029Z,375
2018-07-23T07:17:11.002Z,381
2018-07-23T07:18:11.682Z,401
2018-07-23T07:19:12.409Z,393
2018-07-23T07:20:32.679Z,391
2018-07-23T07:21:34.624Z,414
2018-07-23T07:22:33.464Z,425
2018-07-23T07:23:32.969Z,400
2018-07-23T07:24:53.917Z,390
2018-07-23T07:25:54.849Z,420
2018-07-23T07:26:54.815Z,438
2018-07-23T07:27:54.512Z,455
2018-07-23T07:28:54.458Z,454
2018-07-23T07:30:16.300Z,473
2018-07-23T07:31:16.821Z,469
2018-07-23T07:32:17.271Z,449
2018-07-23T07:33:17.581Z,450
2018-07-23T07:34:16.369Z,457
2018-07-23T07:35:38.981Z,460
2018-07-23T07:36:38.918Z,425
2018-07-23T07:37:38.650Z,395
2018-07-23T07:38:39.965Z,390
2018-07-23T07:39:39.432Z,417
2018-07-23T07:40:38.915Z,441
2018-07-23T07:41:39.735Z,445
2018-07-23T07:42:39.790Z,461
2018-07-23T07:43:40.101Z,480
2018-07-23T07:44:38.841Z,493
2018-07-23T07:45:39.366Z,500
2018-07-23T07:46:39.460Z,483
2018-07-23T07:47:38.995Z,484
2018-07-23T07:49:02.522Z,496
2018-07-23T07:50:03.120Z,492
2018-07-23T07:51:02.795Z,488
2018-07-23T07:52:03.327Z,490
2018-07-23T07:53:24.460Z,420
2018-07-23T07:54:24.535Z,411
2018-07-23T07:55:24.533Z,439
2018-07-23T07:56:25.363Z,439
2018-07-23T07:57:25.343Z,393
2018-07-23T07:58:46.575Z,339
2018-07-23T07:59:47.132Z,365
2018-07-23T08:00:47.213Z,429
2018-07-23T08:01:46.784Z,459
2018-07-23T08:02:46.554Z,459
2018-07-23T08:03:47.560Z,445
2018-07-23T08:04:46.197Z,440
2018-07-23T08:05:47.222Z,459
2018-07-23T08:06:46.798Z,476
2018-07-23T08:07:46.801Z,494
2018-07-23T08:09:08.348Z,468
2018-07-23T08:10:08.909Z,461
2018-07-23T08:11:31.790Z,509
2018-07-23T08:12:32.910Z,522
2018-07-23T08:13:54.653Z,528
2018-07-23T08:14:54.385Z,558
2018-07-23T08:15:55.474Z,580
2018-07-23T08:16:55.247Z,578
2018-07-23T08:18:16.826Z,575
2018-07-23T08:19:17.878Z,598
2018-07-23T08:20:17.909Z,599
2018-07-23T08:21:17.804Z,586
2018-07-23T08:22:17.740Z,573
2018-07-23T08:23:17.220Z,584
2018-07-23T08:24:16.907Z,588
2018-07-23T08:25:17.605Z,576
2018-07-23T08:26:17.177Z,581
2018-07-23T08:27:17.056Z,607
2018-07-23T08:28:17.505Z,594
2018-07-23T08:29:17.077Z,567
2018-07-23T08:30:16.687Z,564
2018-07-23T08:31:17.511Z,580
2018-07-23T08:32:17.467Z,589
2018-07-23T08:33:17.304Z,566
2018-07-23T08:34:17.769Z,564
2018-07-23T08:35:17.328Z,587
2018-07-23T08:36:16.961Z,591
2018-07-23T08:37:16.854Z,595
2018-07-23T08:39:00.832Z,598
2018-07-23T08:40:01.467Z,603
2018-07-23T08:41:44.673Z,617
2018-07-23T08:42:45.612Z,608
2018-07-23T08:44:07.110Z,599
2018-07-23T08:45:29.761Z,598
2018-07-23T08:46:30.703Z,607
2018-07-23T08:47:29.391Z,603
2018-07-23T08:48:30.329Z,604
2018-07-23T08:49:30.245Z,636
2018-07-23T08:50:51.685Z,654
2018-07-23T08:51:52.701Z,661
2018-07-23T08:53:35.715Z,640
2018-07-23T08:54:36.226Z,622
2018-07-23T08:55:36.213Z,620
2018-07-23T08:56:36.054Z,630
2018-07-23T08:57:35.773Z,642
2018-07-23T08:58:36.366Z,665
2018-07-23T08:59:36.038Z,694
2018-07-23T09:00:57.290Z,688
2018-07-23T09:01:57.777Z,671
2018-07-23T09:02:57.534Z,664
2018-07-23T09:03:58.124Z,738
2018-07-23T09:04:57.892Z,736
2018-07-23T09:06:19.169Z,638
2018-07-23T09:07:20.184Z,652
2018-07-23T09:08:20.191Z,677
2018-07-23T09:09:20.001Z,686
2018-07-23T09:10:20.024Z,661
2018-07-23T09:11:41.238Z,634
2018-07-23T09:12:41.978Z,635
2018-07-23T09:13:41.655Z,651
2018-07-23T09:14:41.678Z,665
2018-07-23T09:15:41.532Z,663
2018-07-23T09:17:23.997Z,666
2018-07-23T09:18:24.872Z,657
2018-07-23T09:19:24.824Z,656
2018-07-23T09:20:45.872Z,683
2018-07-23T09:21:46.730Z,685
2018-07-23T09:22:47.758Z,690
2018-07-23T09:23:46.722Z,707
2018-07-23T09:24:46.652Z,719
2018-07-23T09:25:46.602Z,702
2018-07-23T09:26:46.427Z,686
2018-07-23T09:27:45.912Z,677
2018-07-23T09:28:46.738Z,642
2018-07-23T09:29:46.354Z,600
2018-07-23T09:30:46.030Z,606
2018-07-23T09:31:45.886Z,655
2018-07-23T09:32:46.499Z,693
2018-07-23T09:33:46.115Z,691
2018-07-23T09:34:45.562Z,677
2018-07-23T09:36:07.508Z,709
2018-07-23T09:37:08.218Z,692
2018-07-23T09:38:08.784Z,643
2018-07-23T09:39:08.391Z,625
2018-07-23T09:40:08.142Z,640
2018-07-23T09:41:08.005Z,664
2018-07-23T09:42:07.951Z,660
2018-07-23T09:43:29.892Z,674
2018-07-23T09:44:30.632Z,667
2018-07-23T09:45:30.546Z,650
2018-07-23T09:46:30.124Z,664
2018-07-23T09:47:54.394Z,697
2018-07-23T09:48:55.115Z,741
2018-07-23T09:49:54.690Z,734
2018-07-23T09:50:54.313Z,691
2018-07-23T09:51:55.306Z,675
2018-07-23T09:52:55.061Z,709
2018-07-23T09:53:54.843Z,700
2018-07-23T09:55:16.441Z,603
2018-07-23T09:56:16.852Z,602
2018-07-23T09:57:16.366Z,661
2018-07-23T09:58:16.769Z,687
2018-07-23T09:59:16.412Z,630
2018-07-23T10:00:38.391Z,526
2018-07-23T10:01:39.051Z,474
2018-07-23T10:02:39.004Z,444
2018-07-23T10:03:38.804Z,422
2018-07-23T10:04:38.445Z,439
2018-07-23T10:05:39.006Z,502
2018-07-23T10:06:39.405Z,588
2018-07-23T10:07:38.990Z,642
2018-07-23T10:08:38.627Z,656
2018-07-23T10:09:38.384Z,620
2018-07-23T10:10:39.723Z,576
2018-07-23T10:11:38.281Z,593
2018-07-23T10:12:39.194Z,616
2018-07-23T10:13:38.883Z,627
2018-07-23T10:15:00.489Z,685
2018-07-23T10:16:22.688Z,716
2018-07-23T10:17:23.941Z,714
2018-07-23T10:18:22.900Z,691
2018-07-23T10:19:22.933Z,658
2018-07-23T10:20:44.709Z,651
2018-07-23T10:21:45.588Z,679
2018-07-23T10:22:45.271Z,695
2018-07-23T10:23:44.815Z,703
2018-07-23T10:24:45.455Z,712
2018-07-23T10:25:45.605Z,709
2018-07-23T10:26:45.290Z,699
2018-07-23T10:27:44.974Z,695
2018-07-23T10:28:45.528Z,691
2018-07-23T10:30:06.496Z,675
2018-07-23T10:31:07.204Z,669
2018-07-23T10:32:06.958Z,672
2018-07-23T10:33:06.829Z,657
2018-07-23T10:34:29.192Z,649
2018-07-23T10:35:50.879Z,628
2018-07-23T10:36:50.881Z,616
2018-07-23T10:37:51.702Z,630
2018-07-23T10:38:51.799Z,634
2018-07-23T10:39:50.686Z,639
2018-07-23T10:40:51.922Z,632
2018-07-23T10:41:50.796Z,625
2018-07-23T10:42:51.287Z,627
2018-07-23T10:43:50.900Z,630
2018-07-23T10:44:50.598Z,621
2018-07-23T10:45:51.037Z,615
2018-07-23T10:46:50.595Z,628
2018-07-23T10:48:33.800Z,658
2018-07-23T10:49:34.360Z,644
2018-07-23T10:50:34.465Z,634
2018-07-23T10:51:34.327Z,603
2018-07-23T10:52:55.038Z,534
2018-07-23T10:53:55.814Z,560
2018-07-23T10:54:55.491Z,572
2018-07-23T10:55:56.276Z,569
2018-07-23T10:56:55.969Z,542
2018-07-23T10:57:55.912Z,503
2018-07-23T10:59:17.232Z,481
2018-07-23T11:00:18.074Z,519
2018-07-23T11:01:17.579Z,561
2018-07-23T11:02:17.486Z,593
2018-07-23T11:03:18.258Z,598
2018-07-23T11:04:18.069Z,624
2018-07-23T11:05:17.809Z,677
2018-07-23T11:06:17.442Z,677
2018-07-23T11:07:39.549Z,644
2018-07-23T11:08:40.337Z,619
2018-07-23T11:09:40.058Z,626
2018-07-23T11:10:40.291Z,637
2018-07-23T11:12:01.888Z,605
2018-07-23T11:13:02.503Z,605
2018-07-23T11:14:02.296Z,634
2018-07-23T11:15:03.171Z,647
2018-07-23T11:16:02.909Z,625
2018-07-23T11:17:02.641Z,604
2018-07-23T11:18:02.417Z,609
2018-07-23T11:19:02.175Z,644
2018-07-23T11:20:02.980Z,664
2018-07-23T11:21:02.933Z,668
2018-07-23T11:22:03.061Z,502
2018-07-23T11:23:04.127Z,595
2018-07-23T11:24:26.429Z,217
2018-07-23T11:25:39.178Z,419
2018-07-23T11:26:18.066Z,201
2018-07-23T11:28:01.933Z,670
2018-07-23T11:29:02.538Z,409
2018-07-23T11:30:02.277Z,675
2018-07-23T11:31:03.055Z,660
2018-07-23T11:32:02.917Z,695
2018-07-23T11:33:23.969Z,173
2018-07-23T11:34:25.288Z,261
2018-07-23T11:35:25.065Z,162
2018-07-23T11:36:24.703Z,165
2018-07-23T11:37:24.430Z,190
2018-07-23T11:38:47.774Z,644
2018-07-23T11:40:31.529Z,405
2018-07-23T11:41:32.326Z,625
2018-07-23T11:42:32.222Z,684
2018-07-23T11:43:32.111Z,701
2018-07-23T11:44:31.823Z,674
2018-07-23T11:45:32.362Z,643
2018-07-23T11:46:32.078Z,644
2018-07-23T11:47:31.757Z,696
2018-07-23T11:48:32.345Z,713
2018-07-23T11:49:32.152Z,663
2018-07-23T11:50:31.700Z,625
2018-07-23T11:51:32.764Z,633
2018-07-23T11:52:32.700Z,626
2018-07-23T11:53:32.409Z,627
2018-07-23T11:54:32.102Z,504
2018-07-23T11:55:32.066Z,662
2018-07-23T11:56:31.755Z,644
2018-07-23T11:57:31.577Z,647
2018-07-23T11:58:32.356Z,611
2018-07-23T11:59:31.992Z,583
2018-07-23T12:00:31.529Z,584
2018-07-23T12:01:53.949Z,645
2018-07-23T12:02:54.584Z,669
2018-07-23T12:03:54.514Z,651
2018-07-23T12:04:54.049Z,662
2018-07-23T12:05:53.933Z,667
2018-07-23T12:06:54.516Z,696
2018-07-23T12:07:53.888Z,735
2018-07-23T12:08:54.541Z,737
2018-07-23T12:09:54.038Z,748
2018-07-23T12:10:53.585Z,783
2018-07-23T12:12:15.563Z,697
2018-07-23T12:13:16.902Z,634
2018-07-23T12:14:16.422Z,672
2018-07-23T12:15:15.804Z,733
2018-07-23T12:16:17.167Z,744
2018-07-23T12:17:16.466Z,735
2018-07-23T12:18:16.033Z,736
2018-07-23T12:19:15.816Z,743
2018-07-23T12:20:16.482Z,735
2018-07-23T12:21:16.399Z,723
2018-07-23T12:22:15.971Z,763
2018-07-23T12:23:40.030Z,819
2018-07-23T12:24:40.814Z,790
2018-07-23T12:26:02.955Z,708
2018-07-23T12:27:02.756Z,685
2018-07-23T12:28:24.862Z,713
2018-07-23T12:29:25.593Z,487
2018-07-23T12:30:25.594Z,571
2018-07-23T12:31:25.216Z,747
2018-07-23T12:32:24.800Z,785
2018-07-23T12:33:25.615Z,831
2018-07-23T12:34:46.384Z,862
2018-07-23T12:35:47.293Z,878
2018-07-23T12:36:46.929Z,843
2018-07-23T12:37:46.567Z,840
2018-07-23T12:38:47.007Z,591
2018-07-23T12:40:07.704Z,680
2018-07-23T12:41:08.180Z,777
2018-07-23T12:42:07.836Z,786
2018-07-23T12:43:08.900Z,355
2018-07-23T12:44:30.839Z,266
2018-07-23T12:45:30.626Z,253
2018-07-23T12:46:53.798Z,243
2018-07-23T12:47:53.844Z,265
2018-07-23T12:48:56.551Z,238
2018-07-23T12:49:55.043Z,742
2018-07-23T12:51:17.548Z,771
2018-07-23T12:52:18.224Z,768
2018-07-23T12:53:18.002Z,718
2018-07-23T12:54:17.573Z,715
2018-07-23T12:55:18.255Z,733
2018-07-23T12:56:17.860Z,790
2018-07-23T12:57:18.180Z,738
2018-07-23T12:58:18.123Z,726
2018-07-23T12:59:17.673Z,716
2018-07-23T13:00:17.504Z,730
2018-07-23T13:01:17.664Z,799
2018-07-23T13:02:18.612Z,779
2018-07-23T13:03:41.727Z,730
2018-07-23T13:04:42.294Z,664
2018-07-23T13:05:41.952Z,700
2018-07-23T13:06:42.938Z,748
2018-07-23T13:08:06.770Z,760
2018-07-23T13:09:29.431Z,709
2018-07-23T13:10:33.791Z,711
2018-07-23T13:11:30.393Z,720
2018-07-23T13:12:29.970Z,719
2018-07-23T13:13:29.587Z,725
2018-07-23T13:14:30.081Z,740
2018-07-23T13:15:30.206Z,682
2018-07-23T13:16:51.650Z,694
2018-07-23T13:17:52.543Z,708
2018-07-23T13:18:58.800Z,732
2018-07-23T13:19:52.404Z,749
2018-07-23T13:20:51.925Z,694
2018-07-23T13:21:51.405Z,607
2018-07-23T13:22:51.927Z,556
2018-07-23T13:23:52.168Z,571
2018-07-23T13:25:34.795Z,651
2018-07-23T13:26:35.603Z,683
2018-07-23T13:27:35.998Z,707
2018-07-23T13:28:35.496Z,686
2018-07-23T13:29:35.362Z,681
2018-07-23T13:30:35.204Z,705
2018-07-23T13:31:35.092Z,725
2018-07-23T13:32:34.747Z,712
2018-07-23T13:33:35.375Z,712
2018-07-23T13:34:36.083Z,716
2018-07-23T13:35:34.874Z,704
2018-07-23T13:36:35.730Z,699
2018-07-23T13:37:35.429Z,693
2018-07-23T13:38:35.484Z,653
2018-07-23T13:39:35.437Z,607
2018-07-23T13:40:35.249Z,589
2018-07-23T13:41:35.134Z,613
2018-07-23T13:42:35.014Z,648
2018-07-23T13:43:35.664Z,656
2018-07-23T13:44:35.374Z,653
2018-07-23T13:45:35.460Z,658
2018-07-23T13:46:35.312Z,666
2018-07-23T13:47:34.841Z,674
2018-07-23T13:48:36.963Z,672
2018-07-23T13:49:35.505Z,649
2018-07-23T13:50:35.214Z,622
2018-07-23T13:51:35.202Z,595
2018-07-23T13:52:35.027Z,581
2018-07-23T13:53:35.620Z,590
2018-07-23T13:55:20.207Z,618
2018-07-23T13:56:20.741Z,586
2018-07-23T13:57:20.126Z,570
2018-07-23T13:58:20.708Z,552
2018-07-23T13:59:20.214Z,530
2018-07-23T14:00:21.817Z,527
2018-07-23T14:01:20.267Z,519
2018-07-23T14:02:21.009Z,512
2018-07-23T14:03:22.568Z,487
2018-07-23T14:04:20.028Z,484
2018-07-23T14:05:21.049Z,480
2018-07-23T14:06:20.769Z,474
2018-07-23T14:07:20.495Z,484
2018-07-23T14:08:20.351Z,493
2018-07-23T14:09:42.993Z,489
2018-07-23T14:10:43.537Z,502
2018-07-23T14:11:43.224Z,512
2018-07-23T14:12:43.317Z,545
2018-07-23T14:13:43.200Z,591
2018-07-23T14:14:43.620Z,585
2018-07-23T14:15:43.634Z,570
2018-07-23T14:16:43.308Z,565
2018-07-23T14:17:42.855Z,538
2018-07-23T14:18:43.854Z,541
2018-07-23T14:19:43.762Z,549
2018-07-23T14:20:43.558Z,543
2018-07-23T14:21:43.430Z,498
2018-07-23T14:22:43.210Z,476
2018-07-23T14:23:43.909Z,123
2018-07-23T14:25:04.998Z,503
2018-07-23T14:26:06.512Z,151
2018-07-23T14:27:06.117Z,125
2018-07-23T14:28:05.825Z,308
2018-07-23T14:29:48.233Z,499
2018-07-23T14:30:49.194Z,204
2018-07-23T14:31:49.086Z,494
2018-07-23T14:32:48.792Z,351
2018-07-23T14:33:48.393Z,475
2018-07-23T14:34:49.210Z,483
2018-07-23T14:35:48.798Z,481
2018-07-23T14:36:48.673Z,445
2018-07-23T14:38:12.057Z,431
2018-07-23T14:40:17.255Z,492
2018-07-23T14:41:17.938Z,478
2018-07-23T14:42:18.269Z,475
2018-07-23T14:43:17.907Z,475
2018-07-23T14:44:17.630Z,467
2018-07-23T14:45:17.365Z,458
2018-07-23T14:46:18.169Z,466
2018-07-23T14:47:17.785Z,473
2018-07-23T14:48:17.328Z,475
2018-07-23T14:49:16.954Z,453
2018-07-23T14:50:39.667Z,429
2018-07-23T14:52:00.762Z,321
2018-07-23T14:53:01.364Z,404
2018-07-23T14:54:00.917Z,403
2018-07-23T14:55:23.647Z,368
2018-07-23T14:57:06.074Z,360
2018-07-23T14:58:07.227Z,357
2018-07-23T14:59:07.331Z,397
2018-07-23T15:00:06.523Z,278
2018-07-23T15:01:06.570Z,372